Time;durP1;ratioP1;P1;durP2;ratioP2;P2;SDS_P1;SDS_P2;PMS_P1;PMS_P2;Temp;Humidity;BMP_temperature;BMP_pressure;BME280_temperature;BME280_humidity;BME280_pressure;Samples;Min_cycle;Max_cycle;Signal;HPM_P1;HPM_P2
2022/03/31 00:05:10;;;;;;;9.67;4.10;;;-0.70;99.90;;;;;;10398902;28;20493;-76
2022/03/31 00:10:53;;;;;;;7.73;3.60;;;-0.70;99.90;;;;;;10398810;28;20433;-79
2022/03/31 00:16:16;;;;;;;6.57;3.43;;;-0.70;99.90;;;;;;10367737;28;20228;-77
2022/03/31 00:21:37;;;;;;;8.77;3.80;;;-0.70;99.90;;;;;;10405775;28;20221;-77
2022/03/31 00:26:59;;;;;;;9.10;3.93;;;-0.70;99.90;;;;;;10398216;28;20202;-79
2022/03/31 00:32:22;;;;;;;9.10;4.40;;;-0.80;99.90;;;;;;10383623;28;20191;-76
2022/03/31 00:37:45;;;;;;;6.33;3.03;;;-0.80;99.90;;;;;;10397935;28;20246;-79
2022/03/31 00:43:08;;;;;;;6.30;3.40;;;-0.90;99.90;;;;;;10397291;28;20502;-79
2022/03/31 00:48:30;;;;;;;8.20;3.30;;;-1.00;99.90;;;;;;10397107;28;20212;-76
2022/03/31 00:53:52;;;;;;;6.23;2.90;;;-0.90;99.90;;;;;;10398452;28;20394;-75
2022/03/31 00:59:17;;;;;;;5.87;3.10;;;-1.10;99.90;;;;;;10397692;28;20526;-77
2022/03/31 01:04:40;;;;;;;5.90;3.37;;;-1.10;99.90;;;;;;10398048;28;20193;-78
2022/03/31 01:10:04;;;;;;;8.30;4.47;;;-1.20;99.90;;;;;;10397756;28;20204;-76
2022/03/31 01:15:26;;;;;;;9.17;3.33;;;-1.10;99.90;;;;;;10387070;28;20226;-78
2022/03/31 01:20:48;;;;;;;12.67;3.47;;;-1.20;99.90;;;;;;10406483;28;20197;-80
2022/03/31 01:26:10;;;;;;;6.50;3.20;;;-1.20;99.90;;;;;;10355457;28;20205;-76
2022/03/31 01:31:32;;;;;;;10.87;3.93;;;-1.30;99.90;;;;;;10384643;28;20200;-77
2022/03/31 01:36:54;;;;;;;5.73;2.93;;;-1.30;99.90;;;;;;10399754;28;20237;-76
2022/03/31 01:42:16;;;;;;;5.40;2.50;;;-1.30;99.90;;;;;;10406037;28;20239;-77
2022/03/31 01:47:39;;;;;;;4.73;2.40;;;-1.30;99.90;;;;;;10409348;28;20263;-77
2022/03/31 01:53:01;;;;;;;6.30;2.20;;;-1.30;99.90;;;;;;10395135;28;20201;-79
2022/03/31 01:58:23;;;;;;;5.17;2.20;;;-1.30;99.90;;;;;;10395094;28;20244;-79
2022/03/31 02:03:45;;;;;;;4.17;1.70;;;-1.40;99.90;;;;;;10396224;28;20543;-79
2022/03/31 02:09:06;;;;;;;4.30;2.33;;;-1.40;99.90;;;;;;10394929;28;20201;-78
2022/03/31 02:14:28;;;;;;;4.70;2.20;;;-1.30;99.90;;;;;;10392550;28;20216;-76
2022/03/31 02:19:50;;;;;;;6.43;2.37;;;-1.40;99.90;;;;;;10359513;28;20204;-76
2022/03/31 02:25:12;;;;;;;5.33;2.87;;;-1.40;99.90;;;;;;10395429;28;20224;-76
2022/03/31 02:30:35;;;;;;;4.90;2.50;;;-1.40;99.90;;;;;;10395536;28;20193;-78
2022/03/31 02:35:57;;;;;;;4.23;2.60;;;-1.50;99.90;;;;;;10394183;28;20237;-77
2022/03/31 02:41:19;;;;;;;4.30;1.67;;;-1.50;99.90;;;;;;10395137;28;20194;-79
2022/03/31 02:46:41;;;;;;;3.97;1.70;;;-1.50;99.90;;;;;;10395362;28;20197;-78
2022/03/31 02:52:03;;;;;;;3.33;2.23;;;-1.40;99.90;;;;;;10394951;28;20550;-76
2022/03/31 02:57:25;;;;;;;4.53;2.00;;;-1.40;99.90;;;;;;10394008;28;20392;-76
2022/03/31 03:02:48;;;;;;;6.07;2.53;;;-1.50;99.90;;;;;;10380394;28;20214;-76
2022/03/31 03:08:10;;;;;;;8.37;2.60;;;-1.40;99.90;;;;;;10395158;28;20232;-76
2022/03/31 03:13:32;;;;;;;9.17;4.20;;;-1.50;99.90;;;;;;10400856;28;20222;-79
2022/03/31 03:18:54;;;;;;;51.77;18.10;;;-1.50;99.90;;;;;;10384465;28;20411;-76
2022/03/31 03:24:17;;;;;;;65.03;23.20;;;-1.60;99.90;;;;;;10401340;28;20452;-77
2022/03/31 03:29:46;;;;;;;36.53;15.77;;;-1.60;99.90;;;;;;10400537;28;20220;-78
2022/03/31 03:35:10;;;;;;;26.10;11.27;;;-1.60;99.90;;;;;;10399984;28;20240;-76
2022/03/31 03:40:33;;;;;;;22.23;12.90;;;-1.60;99.90;;;;;;10400081;28;20496;-77
2022/03/31 03:45:55;;;;;;;25.50;13.57;;;-1.80;99.90;;;;;;10399882;28;20280;-77
2022/03/31 03:51:18;;;;;;;18.77;11.30;;;-1.80;99.90;;;;;;10400117;28;20749;-76
2022/03/31 03:56:40;;;;;;;19.20;10.60;;;-1.80;99.90;;;;;;10400628;28;20246;-76
2022/03/31 04:02:03;;;;;;;23.20;12.67;;;-1.90;99.90;;;;;;10399433;28;20200;-76
2022/03/31 04:07:25;;;;;;;24.33;12.63;;;-1.90;99.90;;;;;;10399904;28;20276;-75
2022/03/31 04:12:47;;;;;;;26.67;13.10;;;-2.00;99.90;;;;;;10398859;28;20275;-77
2022/03/31 04:18:09;;;;;;;20.13;11.50;;;-2.10;99.90;;;;;;10373193;28;20228;-77
2022/03/31 04:23:31;;;;;;;19.60;10.20;;;-2.10;99.90;;;;;;10403856;28;20259;-76
2022/03/31 04:28:54;;;;;;;24.73;12.63;;;-2.10;99.90;;;;;;10398020;28;20206;-77
2022/03/31 04:34:16;;;;;;;27.47;14.40;;;-2.20;99.90;;;;;;10399150;28;20220;-80
2022/03/31 04:39:37;;;;;;;26.03;14.63;;;-2.20;99.90;;;;;;10398656;28;20224;-81
2022/03/31 04:45:02;;;;;;;32.33;17.33;;;-2.20;99.90;;;;;;10397733;28;20189;-80
2022/03/31 04:50:24;;;;;;;46.87;22.23;;;-2.20;99.90;;;;;;10396750;28;20271;-79
2022/03/31 04:55:47;;;;;;;47.23;21.73;;;-2.10;99.90;;;;;;10398396;28;20220;-77
2022/03/31 05:01:10;;;;;;;37.30;18.27;;;-2.10;99.90;;;;;;10397154;28;20201;-78
2022/03/31 05:06:32;;;;;;;32.33;16.80;;;-2.10;99.90;;;;;;10397620;28;20525;-77
2022/03/31 05:11:55;;;;;;;28.57;15.50;;;-1.90;99.90;;;;;;10397993;28;20526;-78
2022/03/31 05:17:17;;;;;;;33.43;15.13;;;-1.80;99.90;;;;;;10357415;28;20229;-80
2022/03/31 05:22:40;;;;;;;29.60;15.13;;;-1.70;99.90;;;;;;10410093;28;20197;-79
2022/03/31 05:28:02;;;;;;;22.00;12.27;;;-1.60;99.90;;;;;;10396222;28;20202;-76
2022/03/31 05:33:23;;;;;;;21.33;10.30;;;-1.50;99.90;;;;;;10395215;28;20264;-77
2022/03/31 05:38:45;;;;;;;22.07;10.63;;;-1.30;99.90;;;;;;10397585;28;20225;-76
2022/03/31 05:44:07;;;;;;;34.07;11.10;;;-1.20;99.90;;;;;;10407025;28;20240;-77
2022/03/31 05:49:30;;;;;;;21.60;8.27;;;-1.10;99.90;;;;;;10396431;28;20198;-76
2022/03/31 05:54:52;;;;;;;20.80;6.40;;;-1.00;99.90;;;;;;10395275;28;20189;-77
2022/03/31 06:00:17;;;;;;;17.33;6.23;;;-0.90;99.90;;;;;;10395929;28;20231;-76
2022/03/31 06:05:40;;;;;;;11.73;6.07;;;-0.70;99.90;;;;;;10394505;28;20252;-77
2022/03/31 06:11:02;;;;;;;21.33;7.63;;;-0.50;99.90;;;;;;10395652;28;20216;-79
2022/03/31 06:16:23;;;;;;;34.50;10.73;;;-0.40;99.90;;;;;;10376431;28;20221;-76
2022/03/31 06:21:46;;;;;;;14.97;6.00;;;-0.10;99.90;;;;;;10403373;28;20249;-78
2022/03/31 06:27:08;;;;;;;11.33;5.67;;;0.20;99.90;;;;;;10395589;28;20202;-76
2022/03/31 06:32:31;;;;;;;16.67;8.10;;;0.40;99.90;;;;;;10393721;28;20197;-77
2022/03/31 06:37:53;;;;;;;23.07;9.10;;;0.60;99.90;;;;;;10393897;28;20321;-76
2022/03/31 06:43:15;;;;;;;21.43;8.73;;;0.90;99.90;;;;;;10381660;28;20190;-77
2022/03/31 06:48:38;;;;;;;14.90;5.23;;;1.70;99.90;;;;;;10401527;28;20553;-79
2022/03/31 06:54:00;;;;;;;6.93;3.93;;;3.60;93.70;;;;;;10403321;28;20267;-80
2022/03/31 06:59:23;;;;;;;7.43;3.93;;;5.20;77.10;;;;;;10401384;28;20235;-77
2022/03/31 07:04:45;;;;;;;9.07;4.17;;;6.70;54.90;;;;;;10401570;28;20197;-75
2022/03/31 07:10:08;;;;;;;8.27;4.23;;;7.40;44.70;;;;;;10402337;28;20199;-79
2022/03/31 07:15:31;;;;;;;14.87;6.50;;;8.10;38.60;;;;;;10371683;28;20204;-79
2022/03/31 07:20:53;;;;;;;6.73;4.23;;;8.30;34.30;;;;;;10389279;28;20514;-75
2022/03/31 07:26:16;;;;;;;22.80;10.53;;;8.70;30.00;;;;;;10373291;28;20243;-75
2022/03/31 08:58:29;;;;;;;4.95;2.45;;;12.50;13.00;;;;;;10552684;28;20556;-79
2022/03/31 09:03:52;;;;;;;6.78;3.28;;;12.70;13.80;;;;;;10536117;28;20508;-78
2022/03/31 09:09:26;;;;;;;9.32;3.05;;;12.80;13.70;;;;;;10550776;28;20220;-78
2022/03/31 09:14:48;;;;;;;7.10;3.00;;;13.40;13.60;;;;;;10543444;28;20226;-79
2022/03/31 09:20:10;;;;;;;7.22;3.63;;;13.60;13.00;;;;;;10581766;28;20207;-79
2022/03/31 09:25:32;;;;;;;5.10;3.10;;;13.00;12.80;;;;;;10500214;28;20198;-79
2022/03/31 09:30:56;;;;;;;6.18;2.92;;;12.80;11.90;;;;;;10514572;28;20190;-79
2022/03/31 09:36:21;;;;;;;2.47;1.90;;;12.90;12.90;;;;;;10530228;28;20310;-81
2022/03/31 09:41:50;;;;;;;5.43;3.00;;;13.10;12.90;;;;;;10557620;28;20201;-78
2022/03/31 09:47:13;;;;;;;10.68;4.65;;;13.80;11.80;;;;;;10553936;28;20200;-79
2022/03/31 09:52:37;;;;;;;7.70;3.45;;;14.20;11.10;;;;;;10564770;28;20192;-78
2022/03/31 09:58:02;;;;;;;13.13;4.07;;;14.40;10.60;;;;;;10511330;28;20691;-78
2022/03/31 10:03:24;;;;;;;6.78;3.20;;;14.40;10.60;;;;;;10504715;28;20203;-78
2022/03/31 10:08:48;;;;;;;6.00;2.75;;;14.20;11.20;;;;;;10483540;28;20357;-78
2022/03/31 10:14:43;;;;;;;11.35;4.03;;;14.10;11.60;;;;;;10512424;28;20264;-78
2022/03/31 10:20:09;;;;;;;7.68;3.80;;;13.80;11.00;;;;;;10529933;28;20720;-78
2022/03/31 10:25:40;;;;;;;10.80;3.60;;;13.70;11.60;;;;;;10493519;28;20216;-85
2022/03/31 10:31:05;;;;;;;5.35;3.15;;;13.70;11.80;;;;;;10495959;28;20209;-84
2022/03/31 10:36:47;;;;;;;6.60;3.70;;;14.40;11.20;;;;;;10507080;28;20246;-85
2022/03/31 10:42:09;;;;;;;14.65;5.10;;;13.80;11.10;;;;;;10513414;28;20234;-80
2022/03/31 10:47:33;;;;;;;9.73;5.75;;;13.90;11.20;;;;;;10503553;28;20205;-80
2022/03/31 10:53:03;;;;;;;11.20;5.55;;;14.60;10.80;;;;;;10504244;28;20216;-87
2022/03/31 10:58:29;;;;;;;6.80;3.53;;;14.50;11.00;;;;;;10496729;28;20303;-81
2022/03/31 11:03:51;;;;;;;6.32;3.15;;;14.00;11.20;;;;;;10517696;28;20370;-81
2022/03/31 11:09:20;;;;;;;4.97;3.08;;;14.10;10.80;;;;;;10516327;28;20218;-84
2022/03/31 11:15:11;;;;;;;10.30;4.78;;;13.90;11.60;;;;;;10514606;28;20236;-81
2022/03/31 11:20:34;;;;;;;8.85;5.45;;;14.20;11.00;;;;;;10533469;28;20192;-86
2022/03/31 11:25:57;;;;;;;7.28;4.72;;;14.70;10.70;;;;;;10519106;28;20212;-85
2022/03/31 11:31:20;;;;;;;12.77;5.40;;;14.80;11.20;;;;;;10462192;28;20246;-82
2022/03/31 11:36:43;;;;;;;11.48;5.70;;;14.60;11.30;;;;;;10476736;28;20242;-82
2022/03/31 11:42:08;;;;;;;12.65;6.35;;;14.10;12.30;;;;;;10503037;28;20196;-88
2022/03/31 11:47:30;;;;;;;21.45;9.13;;;14.30;12.30;;;;;;10502885;28;20209;-83
2022/03/31 11:52:54;;;;;;;34.83;17.60;;;14.30;11.90;;;;;;10516134;28;20194;-83
2022/03/31 11:58:16;;;;;;;28.58;13.85;;;14.10;12.20;;;;;;10501832;28;20301;-85
2022/03/31 12:03:38;;;;;;;24.10;10.38;;;13.90;12.00;;;;;;10515905;28;20496;-82
2022/03/31 12:09:00;;;;;;;19.92;9.82;;;13.60;11.40;;;;;;10505274;28;20547;-81
2022/03/31 12:14:24;;;;;;;11.00;5.80;;;13.40;12.50;;;;;;10518177;28;20233;-84
2022/03/31 12:19:46;;;;;;;13.38;5.50;;;13.40;12.20;;;;;;10515229;28;20247;-82
2022/03/31 12:25:08;;;;;;;22.65;9.13;;;13.20;12.30;;;;;;10532803;28;20206;-84
2022/03/31 12:30:47;;;;;;;12.87;6.23;;;13.10;12.10;;;;;;10519675;28;20205;-79
2022/03/31 12:36:10;;;;;;;11.07;6.65;;;12.80;11.30;;;;;;10502862;28;20218;-82
2022/03/31 12:41:35;;;;;;;19.00;7.03;;;12.90;11.10;;;;;;10510536;28;20208;-82
2022/03/31 12:47:00;;;;;;;9.07;4.93;;;12.70;11.40;;;;;;10493947;28;20281;-79
2022/03/31 12:52:22;;;;;;;7.17;4.27;;;12.10;11.40;;;;;;10517736;28;20527;-77
2022/03/31 12:57:55;;;;;;;10.60;5.17;;;12.10;11.80;;;;;;10531889;28;20257;-79
2022/03/31 13:03:19;;;;;;;17.27;8.50;;;12.10;11.60;;;;;;10515506;28;20476;-78
2022/03/31 13:08:41;;;;;;;19.20;6.10;;;12.20;11.10;;;;;;10532007;28;20273;-78
2022/03/31 13:14:03;;;;;;;10.40;4.00;;;12.00;10.80;;;;;;10525217;28;20489;-81
2022/03/31 13:19:32;;;;;;;13.30;5.03;;;11.60;11.10;;;;;;10529128;28;20206;-81
2022/03/31 13:24:54;;;;;;;23.37;8.27;;;11.20;10.80;;;;;;10431549;28;20238;-79
2022/03/31 13:30:17;;;;;;;19.73;8.43;;;10.90;11.00;;;;;;10446706;28;20205;-78
2022/03/31 13:35:39;;;;;;;19.53;7.00;;;10.90;10.60;;;;;;10448016;28;20238;-78
2022/03/31 13:41:02;;;;;;;16.77;6.90;;;10.70;10.70;;;;;;10442013;28;20269;-78
2022/03/31 13:46:24;;;;;;;20.67;9.03;;;10.20;10.60;;;;;;10461972;28;20205;-83
2022/03/31 13:51:47;;;;;;;25.07;10.70;;;10.00;11.00;;;;;;10426388;28;20199;-78
2022/03/31 14:02:51;;;;;;;14.33;6.10;;;9.90;12.00;;;;;;10458901;28;20197;-81
2022/03/31 14:08:13;;;;;;;12.53;4.30;;;9.40;12.40;;;;;;10461800;28;20255;-82
2022/03/31 14:13:37;;;;;;;18.57;7.37;;;9.00;12.40;;;;;;10455577;28;20657;-80
2022/03/31 14:19:02;;;;;;;8.07;4.30;;;8.70;12.30;;;;;;10430853;28;20228;-79
2022/03/31 14:24:24;;;;;;;10.87;5.10;;;8.60;13.40;;;;;;10431676;28;20232;-79
2022/03/31 14:29:46;;;;;;;8.47;4.73;;;8.50;13.40;;;;;;10452926;28;20521;-78
2022/03/31 14:35:09;;;;;;;19.80;8.23;;;8.40;13.70;;;;;;10456284;28;20225;-86
2022/03/31 14:40:31;;;;;;;11.77;5.40;;;8.30;13.90;;;;;;10451765;28;20220;-79
2022/03/31 14:45:54;;;;;;;13.60;5.97;;;8.00;14.30;;;;;;10442536;28;20211;-82
2022/03/31 14:51:18;;;;;;;15.67;6.80;;;7.80;14.60;;;;;;10407775;28;20505;-82
2022/03/31 14:56:40;;;;;;;34.57;4.93;;;7.60;15.00;;;;;;10435871;28;20259;-83
2022/03/31 15:02:03;;;;;;;17.03;6.53;;;7.20;15.70;;;;;;10445737;28;20208;-81
2022/03/31 15:07:28;;;;;;;7.10;3.70;;;7.00;15.90;;;;;;10426807;28;20201;-81
2022/03/31 15:18:31;;;;;;;5.50;3.10;;;6.80;17.20;;;;;;10446143;28;20293;-76
2022/03/31 15:23:54;;;;;;;11.80;5.13;;;6.80;17.90;;;;;;10444600;28;20209;-80
2022/03/31 15:29:16;;;;;;;11.13;4.90;;;6.50;19.30;;;;;;10436474;28;20241;-79
2022/03/31 15:34:38;;;;;;;9.83;4.80;;;6.20;20.10;;;;;;10437362;28;20506;-81
2022/03/31 15:40:01;;;;;;;11.07;4.70;;;6.00;20.70;;;;;;10438716;28;20200;-81
2022/03/31 15:45:25;;;;;;;14.67;6.93;;;6.10;21.00;;;;;;10438346;28;20225;-77
2022/03/31 15:50:47;;;;;;;21.53;8.27;;;5.90;21.50;;;;;;10437995;28;20389;-75
2022/03/31 15:56:09;;;;;;;15.90;6.00;;;5.60;22.10;;;;;;10418204;28;20237;-76
2022/03/31 16:01:31;;;;;;;11.97;5.33;;;5.30;23.00;;;;;;10398374;28;20209;-76
2022/03/31 16:06:53;;;;;;;12.67;5.60;;;5.10;23.80;;;;;;10397103;28;20240;-76
2022/03/31 16:12:16;;;;;;;29.73;14.43;;;5.00;23.90;;;;;;10429113;28;20201;-81
2022/03/31 16:17:38;;;;;;;22.77;8.83;;;4.90;24.20;;;;;;10437732;28;20223;-79
2022/03/31 16:28:46;;;;;;;13.77;9.40;;;4.60;25.40;;;;;;10437585;28;20259;-76
2022/03/31 16:34:12;;;;;;;20.70;5.60;;;4.40;25.80;;;;;;10436277;28;20204;-75
2022/03/31 16:39:34;;;;;;;13.17;5.20;;;4.20;26.60;;;;;;10435609;28;20206;-76
2022/03/31 16:44:56;;;;;;;11.30;4.00;;;4.00;27.10;;;;;;10439939;28;20230;-75
2022/03/31 16:50:18;;;;;;;16.13;5.13;;;4.00;27.20;;;;;;10438255;28;20538;-76
2022/03/31 16:55:40;;;;;;;13.90;6.30;;;3.70;27.10;;;;;;10420867;28;20237;-75
2022/03/31 17:01:02;;;;;;;10.50;5.23;;;3.60;28.20;;;;;;10396140;28;20200;-75
2022/03/31 17:06:25;;;;;;;15.00;6.80;;;3.50;27.90;;;;;;10395987;28;20272;-76
2022/03/31 17:11:47;;;;;;;9.47;4.43;;;3.50;28.70;;;;;;10425565;28;20194;-75
2022/03/31 17:17:09;;;;;;;7.23;3.67;;;3.40;29.40;;;;;;10439628;28;20238;-75
2022/03/31 17:22:33;;;;;;;6.67;3.60;;;3.30;29.90;;;;;;10459407;28;20199;-75
2022/03/31 17:28:00;;;;;;;8.17;3.80;;;3.10;29.80;;;;;;10429535;28;20432;-76
2022/03/31 17:33:22;;;;;;;7.00;3.67;;;2.90;29.80;;;;;;10444878;28;20560;-81
2022/03/31 17:38:45;;;;;;;12.20;4.80;;;2.90;29.60;;;;;;10443480;28;20526;-81
2022/03/31 17:44:07;;;;;;;26.03;5.47;;;2.80;29.80;;;;;;10443033;28;20199;-81
2022/03/31 17:49:32;;;;;;;14.47;4.23;;;2.60;29.70;;;;;;10443771;28;20194;-77
2022/03/31 17:54:55;;;;;;;11.83;5.80;;;2.40;30.10;;;;;;10432506;28;20246;-80
2022/03/31 18:00:19;;;;;;;13.90;8.20;;;2.40;31.10;;;;;;10402444;28;20429;-81
2022/03/31 18:05:44;;;;;;;13.70;5.63;;;2.40;31.50;;;;;;10402201;28;20207;-80
2022/03/31 18:11:06;;;;;;;29.23;11.87;;;2.40;32.90;;;;;;10427321;28;20193;-81
2022/03/31 18:16:28;;;;;;;37.07;15.30;;;2.30;34.60;;;;;;10419151;28;20226;-77
2022/03/31 18:21:53;;;;;;;27.73;11.77;;;2.30;37.40;;;;;;10434429;28;20203;-77
2022/03/31 18:27:15;;;;;;;26.00;12.00;;;2.20;40.70;;;;;;10431659;28;20207;-79
2022/03/31 18:38:19;;;;;;;34.73;16.13;;;2.10;48.50;;;;;;10440705;28;20469;-82
2022/03/31 18:43:43;;;;;;;25.93;9.30;;;2.00;52.50;;;;;;10441333;28;20238;-82
2022/03/31 18:49:06;;;;;;;13.67;6.37;;;2.20;55.60;;;;;;10441696;28;20199;-76
2022/03/31 18:54:31;;;;;;;23.87;7.27;;;2.10;59.90;;;;;;10440767;28;20273;-81
2022/03/31 18:59:54;;;;;;;25.40;9.47;;;2.10;69.80;;;;;;10426595;28;20260;-75
2022/03/31 19:05:22;;;;;;;25.67;8.53;;;2.00;76.70;;;;;;10426976;28;20199;-82
2022/03/31 19:10:48;;;;;;;35.07;15.40;;;2.00;82.30;;;;;;10425618;28;20249;-78
2022/03/31 19:16:11;;;;;;;25.87;9.40;;;1.90;88.60;;;;;;10440191;28;20237;-81
2022/03/31 19:21:33;;;;;;;18.70;8.23;;;1.90;91.20;;;;;;10455900;28;20194;-80
2022/03/31 19:26:55;;;;;;;13.50;6.00;;;1.90;93.20;;;;;;10440198;28;20243;-79
2022/03/31 19:32:17;;;;;;;17.67;6.87;;;1.90;94.70;;;;;;10439803;28;20523;-76
2022/03/31 19:37:38;;;;;;;17.87;8.40;;;1.80;95.90;;;;;;10438018;28;20232;-76
2022/03/31 19:43:01;;;;;;;17.30;8.03;;;1.80;97.30;;;;;;10419942;28;20198;-81
2022/03/31 19:48:23;;;;;;;23.27;9.53;;;1.80;97.90;;;;;;10438138;28;20194;-76
2022/03/31 19:53:46;;;;;;;20.30;10.60;;;1.80;98.50;;;;;;10438416;28;20221;-76
2022/03/31 19:59:09;;;;;;;10.90;5.50;;;1.80;99.90;;;;;;10396894;28;20412;-77
2022/03/31 20:04:31;;;;;;;9.07;5.10;;;1.90;99.90;;;;;;10396356;28;20199;-80
2022/03/31 20:09:53;;;;;;;15.80;7.07;;;1.90;99.90;;;;;;10418153;28;20221;-75
2022/03/31 20:15:15;;;;;;;15.90;6.27;;;2.00;99.90;;;;;;10437099;28;20217;-80
2022/03/31 20:20:37;;;;;;;17.27;4.70;;;2.00;99.90;;;;;;10453490;28;21265;-77
2022/03/31 20:25:59;;;;;;;8.67;4.33;;;2.00;99.90;;;;;;10436557;28;20205;-77
2022/03/31 20:31:23;;;;;;;9.50;4.47;;;2.00;99.90;;;;;;10437850;28;20595;-75
2022/03/31 20:36:46;;;;;;;9.87;3.80;;;1.90;99.90;;;;;;10436179;28;20555;-76
2022/03/31 20:42:09;;;;;;;9.23;4.43;;;1.90;99.90;;;;;;10422786;28;20457;-76
2022/03/31 20:47:31;;;;;;;7.27;3.43;;;2.00;99.90;;;;;;10438645;28;20195;-78
2022/03/31 20:52:56;;;;;;;4.90;3.10;;;1.90;99.90;;;;;;10437698;28;20200;-76
2022/03/31 20:58:18;;;;;;;6.77;3.70;;;1.90;99.90;;;;;;10398776;28;20441;-76
2022/03/31 21:03:40;;;;;;;9.87;4.17;;;1.90;99.90;;;;;;10397604;28;20282;-75
2022/03/31 21:09:02;;;;;;;10.10;4.10;;;1.90;99.90;;;;;;10412313;28;20234;-77
2022/03/31 21:14:24;;;;;;;12.80;3.93;;;1.80;99.90;;;;;;10420595;28;20198;-77
2022/03/31 21:19:46;;;;;;;14.53;4.40;;;1.80;99.90;;;;;;10452201;28;20397;-81
2022/03/31 21:25:08;;;;;;;8.33;3.47;;;1.80;99.90;;;;;;10435104;28;20194;-77
2022/03/31 21:30:30;;;;;;;9.10;3.87;;;1.80;99.90;;;;;;10436142;28;20263;-76
2022/03/31 21:35:53;;;;;;;8.07;3.40;;;1.70;99.90;;;;;;10435208;28;20234;-75
2022/03/31 21:41:14;;;;;;;5.23;2.17;;;1.70;99.90;;;;;;10437450;28;20198;-79
2022/03/31 21:46:39;;;;;;;7.53;3.00;;;1.70;99.90;;;;;;10436933;28;20191;-76
2022/03/31 21:52:00;;;;;;;5.37;2.57;;;1.70;99.90;;;;;;10436534;28;20249;-82
2022/03/31 21:57:22;;;;;;;11.23;3.50;;;1.70;99.90;;;;;;10404800;28;20427;-79
2022/03/31 22:02:44;;;;;;;13.63;4.47;;;1.70;99.90;;;;;;10396672;28;20313;-79
2022/03/31 22:13:47;;;;;;;9.20;4.27;;;1.60;99.90;;;;;;10441455;28;20205;-77
2022/03/31 22:19:10;;;;;;;12.17;3.97;;;1.60;99.90;;;;;;10455009;28;20230;-75
2022/03/31 22:24:34;;;;;;;10.80;5.43;;;1.70;99.90;;;;;;10442690;28;20543;-77
2022/03/31 22:29:58;;;;;;;9.17;5.50;;;1.70;99.90;;;;;;10440793;28;20194;-78
2022/03/31 22:35:21;;;;;;;10.63;5.63;;;1.70;99.90;;;;;;10443754;28;20202;-77
2022/03/31 22:40:43;;;;;;;12.97;5.90;;;1.60;99.90;;;;;;10441647;28;20481;-81
2022/03/31 22:46:09;;;;;;;11.33;5.47;;;1.70;99.90;;;;;;10426992;28;20256;-80
2022/03/31 22:51:32;;;;;;;8.80;4.53;;;1.70;99.90;;;;;;10441567;28;20199;-76
2022/03/31 22:56:54;;;;;;;14.43;5.23;;;1.50;99.90;;;;;;10413274;28;20249;-79
2022/03/31 23:02:17;;;;;;;8.60;4.23;;;1.60;99.90;;;;;;10399162;28;20215;-77
2022/03/31 23:07:39;;;;;;;9.03;3.83;;;1.60;99.90;;;;;;10407299;28;20285;-77
2022/03/31 23:13:02;;;;;;;7.23;3.37;;;1.60;99.90;;;;;;10439511;28;20207;-81
2022/03/31 23:18:23;;;;;;;7.10;3.33;;;1.50;99.90;;;;;;10448269;28;20288;-78
2022/03/31 23:23:46;;;;;;;6.07;3.27;;;1.50;99.90;;;;;;10461369;28;20274;-79
2022/03/31 23:29:07;;;;;;;8.13;3.67;;;1.50;99.90;;;;;;10426743;28;20199;-79
2022/03/31 23:34:29;;;;;;;8.30;4.20;;;1.50;99.90;;;;;;10439995;28;20238;-82
2022/03/31 23:39:51;;;;;;;8.87;4.27;;;1.50;99.90;;;;;;10438006;28;20571;-80
2022/03/31 23:45:14;;;;;;;8.20;3.97;;;1.40;99.90;;;;;;10439478;28;20509;-78
2022/03/31 23:50:37;;;;;;;7.03;3.93;;;1.40;99.90;;;;;;10438329;28;20195;-76
2022/03/31 23:55:58;;;;;;;11.27;5.30;;;1.50;99.90;;;;;;10437640;28;20246;-78
